createdAt,value
2022-12-02T00:00:50.131Z,84.08
2022-12-02T00:03:19.986Z,84.49
2022-12-02T00:05:49.423Z,83.93
2022-12-02T00:08:20.496Z,83.92
2022-12-02T00:10:49.724Z,84.47
2022-12-02T00:13:22.341Z,84.03
2022-12-02T00:15:51.849Z,84.13
2022-12-02T00:18:18.475Z,84.13
2022-12-02T00:20:45.872Z,84.18
2022-12-02T00:23:12.676Z,83.96
2022-12-02T00:25:39.294Z,84.91
2022-12-02T00:28:07.183Z,84.71
2022-12-02T00:30:34.037Z,84.90
2022-12-02T00:33:00.585Z,84.73
2022-12-02T00:35:27.129Z,84.45
2022-12-02T00:37:53.667Z,83.88
2022-12-02T00:40:20.205Z,84.00
2022-12-02T00:42:46.894Z,83.98
2022-12-02T00:45:34.406Z,84.22
2022-12-02T00:48:01.151Z,84.69
2022-12-02T00:50:27.892Z,84.12
2022-12-02T00:52:54.788Z,84.30
2022-12-02T00:55:21.391Z,84.34
2022-12-02T00:57:47.995Z,83.91
2022-12-02T01:00:16.502Z,84.21
2022-12-02T01:02:43.135Z,84.25
2022-12-02T01:05:10.155Z,84.17
2022-12-02T01:07:36.695Z,84.66
2022-12-02T01:10:04.272Z,83.90
2022-12-02T01:12:30.785Z,84.71
2022-12-02T01:14:57.348Z,84.23
2022-12-02T01:17:25.253Z,84.47
2022-12-02T01:19:51.793Z,84.22
2022-12-02T01:22:18.331Z,84.09
2022-12-02T01:24:44.860Z,84.59
2022-12-02T01:27:11.395Z,83.79
2022-12-02T01:29:37.941Z,83.60
2022-12-02T01:32:04.741Z,83.94
2022-12-02T01:34:32.706Z,83.80
2022-12-02T01:36:59.237Z,83.92
2022-12-02T01:39:25.795Z,84.72
2022-12-02T01:41:52.445Z,84.04
2022-12-02T01:44:19.183Z,83.60
2022-12-02T01:46:45.856Z,84.05
2022-12-02T01:49:12.473Z,84.70
2022-12-02T01:51:40.493Z,84.49
2022-12-02T01:54:07.141Z,84.40
2022-12-02T01:56:33.772Z,84.33
2022-12-02T01:59:00.439Z,84.01
2022-12-02T02:01:28.812Z,83.82
2022-12-02T02:03:55.756Z,83.92
2022-12-02T02:06:23.563Z,84.31
2022-12-02T02:08:51.872Z,84.60
2022-12-02T02:11:18.651Z,84.28
2022-12-02T02:13:45.501Z,83.81
2022-12-02T02:16:13.393Z,84.17
2022-12-02T02:18:40.105Z,84.21
2022-12-02T02:21:09.715Z,84.03
2022-12-02T02:23:37.637Z,84.55
2022-12-02T02:26:04.263Z,83.98
2022-12-02T02:28:31.312Z,84.72
2022-12-02T02:30:58.582Z,84.14
2022-12-02T02:33:28.737Z,83.72
2022-12-02T02:35:55.953Z,84.21
2022-12-02T02:38:25.333Z,84.03
2022-12-02T02:40:54.308Z,84.39
2022-12-02T02:43:23.720Z,84.17
2022-12-02T02:45:51.335Z,84.06
2022-12-02T02:48:18.974Z,84.47
2022-12-02T02:50:47.428Z,84.30
2022-12-02T02:53:16.117Z,83.75
2022-12-02T02:55:43.206Z,84.08
2022-12-02T02:58:18.068Z,84.55
2022-12-02T03:00:48.205Z,84.58
2022-12-02T03:03:18.231Z,83.58
2022-12-02T03:05:45.765Z,83.76
2022-12-02T03:08:12.550Z,83.40
2022-12-02T03:10:40.223Z,83.50
2022-12-02T03:13:06.913Z,83.64
2022-12-02T03:15:35.064Z,84.03
2022-12-02T03:18:01.976Z,84.25
2022-12-02T03:20:28.685Z,83.65
2022-12-02T03:22:55.375Z,83.91
2022-12-02T03:25:21.992Z,83.70
2022-12-02T03:27:48.760Z,83.75
2022-12-02T03:30:18.334Z,84.07
2022-12-02T03:32:46.936Z,84.29
2022-12-02T03:35:14.244Z,83.56
2022-12-02T03:37:40.979Z,83.56
2022-12-02T03:40:09.120Z,84.59
2022-12-02T03:42:36.087Z,83.96
2022-12-02T03:45:04.430Z,84.42
2022-12-02T03:47:31.231Z,83.61
2022-12-02T03:49:59.415Z,83.67
2022-12-02T03:52:26.101Z,83.61
2022-12-02T03:54:55.399Z,84.02
2022-12-02T03:57:22.269Z,83.87
2022-12-02T03:59:48.911Z,84.35
2022-12-02T04:02:15.539Z,83.83
2022-12-02T04:04:42.099Z,84.15
2022-12-02T04:07:10.108Z,84.26
2022-12-02T04:09:36.713Z,83.40
2022-12-02T04:12:03.396Z,83.40
2022-12-02T04:14:29.936Z,83.49
2022-12-02T04:16:56.457Z,83.72
2022-12-02T04:19:23.537Z,84.31
2022-12-02T04:21:50.485Z,84.30
2022-12-02T04:24:18.432Z,83.44
2022-12-02T04:26:44.972Z,83.37
2022-12-02T04:29:11.559Z,84.41
2022-12-02T04:31:38.191Z,84.28
2022-12-02T04:34:04.796Z,83.23
2022-12-02T04:36:32.014Z,84.23
2022-12-02T04:38:58.564Z,84.37
2022-12-02T04:41:26.450Z,83.81
2022-12-02T04:43:52.995Z,84.33
2022-12-02T04:46:19.569Z,83.50
2022-12-02T04:48:46.191Z,83.45
2022-12-02T04:51:12.725Z,83.56
2022-12-02T04:53:39.342Z,84.36
2022-12-02T04:56:06.144Z,83.29
2022-12-02T04:58:34.029Z,83.55
2022-12-02T05:01:00.550Z,83.42
2022-12-02T05:03:27.101Z,83.74
2022-12-02T05:05:53.656Z,83.98
2022-12-02T05:08:20.201Z,83.40
2022-12-02T05:10:46.757Z,83.71
2022-12-02T05:13:13.393Z,83.35
2022-12-02T05:15:41.494Z,83.70
2022-12-02T05:18:08.039Z,84.13
2022-12-02T05:20:34.653Z,83.25
2022-12-02T05:23:01.176Z,83.76
2022-12-02T05:25:27.724Z,84.14
2022-12-02T05:27:55.403Z,83.40
2022-12-02T05:30:21.975Z,83.65
2022-12-02T05:32:49.873Z,84.23
2022-12-02T05:35:16.441Z,83.99
2022-12-02T05:37:42.954Z,83.13
2022-12-02T05:40:10.489Z,83.72
2022-12-02T05:42:37.055Z,83.94
2022-12-02T05:45:14.528Z,84.12
2022-12-02T05:47:41.297Z,83.84
2022-12-02T05:50:13.940Z,83.31
2022-12-02T05:52:41.517Z,83.72
2022-12-02T05:55:13.798Z,84.15
2022-12-02T05:57:40.452Z,83.61
2022-12-02T06:00:14.764Z,84.22
2022-12-02T06:02:45.218Z,83.50
2022-12-02T06:05:22.080Z,83.45
2022-12-02T06:07:51.693Z,83.57
2022-12-02T06:10:21.856Z,83.96
2022-12-02T06:12:48.927Z,83.80
2022-12-02T06:15:15.846Z,83.98
2022-12-02T06:17:42.529Z,83.42
2022-12-02T06:20:16.578Z,83.45
2022-12-02T06:22:44.455Z,84.10
2022-12-02T06:25:24.350Z,83.71
2022-12-02T06:27:54.224Z,83.88
2022-12-02T06:30:20.881Z,83.25
2022-12-02T06:32:52.961Z,84.14
2022-12-02T06:35:22.500Z,83.37
2022-12-02T06:37:51.660Z,83.43
2022-12-02T06:40:28.409Z,83.24
2022-12-02T06:42:57.656Z,84.07
2022-12-02T06:45:30.238Z,83.31
2022-12-02T06:48:24.319Z,83.22
2022-12-02T06:50:50.969Z,83.35
2022-12-02T06:53:28.453Z,83.16
2022-12-02T06:56:04.326Z,83.24
2022-12-02T06:58:37.251Z,83.56
2022-12-02T07:01:32.144Z,83.88
2022-12-02T07:04:26.493Z,83.33
2022-12-02T07:06:56.207Z,83.67
2022-12-02T07:09:28.557Z,84.01
2022-12-02T07:11:57.333Z,83.80
2022-12-02T07:14:28.381Z,83.37
2022-12-02T07:16:57.038Z,83.60
2022-12-02T07:19:32.111Z,83.29
2022-12-02T07:21:58.831Z,83.50
2022-12-02T07:24:27.864Z,84.07
2022-12-02T07:26:54.637Z,83.94
2022-12-02T07:29:28.625Z,83.15
2022-12-02T07:31:55.363Z,83.85
2022-12-02T07:34:22.009Z,83.77
2022-12-02T07:36:48.593Z,83.31
2022-12-02T07:39:15.129Z,82.94
2022-12-02T07:41:43.183Z,83.46
2022-12-02T07:44:09.716Z,83.02
2022-12-02T07:46:36.326Z,83.36
2022-12-02T07:49:02.919Z,82.83
2022-12-02T07:51:29.469Z,84.00
2022-12-02T07:53:56.564Z,83.62
2022-12-02T07:56:23.156Z,83.78
2022-12-02T08:01:37.650Z,83.20
2022-12-02T08:04:04.254Z,82.92
2022-12-02T08:06:35.749Z,83.58
2022-12-02T08:09:05.481Z,83.68
2022-12-02T08:11:32.001Z,82.94
2022-12-02T08:13:59.914Z,83.25
2022-12-02T08:16:26.620Z,83.22
2022-12-02T08:18:53.358Z,83.31
2022-12-02T08:21:19.936Z,83.80
2022-12-02T08:23:46.504Z,82.83
2022-12-02T08:26:13.092Z,82.80
2022-12-02T08:28:39.690Z,83.87
2022-12-02T08:31:07.685Z,83.73
2022-12-02T08:33:34.305Z,83.28
2022-12-02T08:36:00.826Z,83.25
2022-12-02T08:38:27.525Z,82.91
2022-12-02T08:40:54.154Z,83.45
2022-12-02T08:43:20.727Z,83.58
2022-12-02T08:45:47.310Z,83.68
2022-12-02T08:48:15.273Z,83.56
2022-12-02T08:50:41.872Z,83.14
2022-12-02T08:53:08.416Z,83.71
2022-12-02T08:55:34.986Z,80.97
2022-12-02T08:58:01.535Z,83.00
2022-12-02T09:00:28.087Z,82.65
2022-12-02T09:02:54.745Z,83.55
2022-12-02T09:05:22.852Z,83.36
2022-12-02T09:07:49.628Z,83.29
2022-12-02T09:10:16.402Z,83.55
2022-12-02T09:12:43.049Z,81.20
2022-12-02T09:15:10.416Z,80.81
2022-12-02T09:17:37.012Z,83.92
2022-12-02T09:20:03.899Z,84.09
2022-12-02T09:22:31.848Z,82.88
2022-12-02T09:24:58.505Z,83.88
2022-12-02T09:27:25.081Z,82.61
2022-12-02T09:29:51.641Z,83.17
2022-12-02T09:32:18.184Z,83.60
2022-12-02T09:34:44.793Z,83.15
2022-12-02T09:37:11.343Z,83.67
2022-12-02T09:39:39.611Z,83.53
2022-12-02T09:42:07.097Z,83.21
2022-12-02T09:44:33.920Z,82.98
2022-12-02T09:47:00.702Z,83.42
2022-12-02T09:49:27.403Z,81.90
2022-12-02T09:51:59.583Z,83.17
2022-12-02T09:54:26.290Z,82.83
2022-12-02T09:56:54.358Z,83.04
2022-12-02T09:59:22.786Z,82.59
2022-12-02T10:01:49.900Z,82.68
2022-12-02T10:04:19.597Z,83.67
2022-12-02T10:06:46.516Z,83.31
2022-12-02T10:09:17.126Z,82.17
2022-12-02T10:11:44.266Z,79.38
2022-12-02T10:14:14.387Z,85.02
2022-12-02T10:16:41.879Z,84.32
2022-12-02T10:19:15.252Z,83.57
2022-12-02T10:21:41.867Z,80.52
2022-12-02T10:24:09.889Z,83.70
2022-12-02T10:26:45.984Z,83.70
2022-12-02T10:29:18.217Z,83.32
2022-12-02T10:31:55.887Z,83.23
2022-12-02T10:34:23.055Z,83.61
2022-12-02T10:36:50.704Z,83.67
2022-12-02T10:39:22.868Z,83.68
2022-12-02T10:41:50.339Z,82.96
2022-12-02T10:44:20.025Z,83.46
2022-12-02T10:46:46.592Z,83.89
2022-12-02T10:49:24.357Z,82.89
2022-12-02T10:51:50.940Z,83.70
2022-12-02T10:54:24.679Z,82.53
2022-12-02T10:56:51.753Z,83.27
2022-12-02T10:59:19.681Z,83.21
2022-12-02T11:01:46.831Z,79.45
2022-12-02T11:04:14.691Z,79.64
2022-12-02T11:06:42.972Z,83.41
2022-12-02T11:09:39.012Z,84.62
2022-12-02T11:12:29.729Z,83.54
2022-12-02T11:14:57.837Z,83.54
2022-12-02T11:17:50.969Z,83.94
2022-12-02T11:20:45.312Z,83.88
2022-12-02T11:23:23.932Z,83.58
2022-12-02T11:26:11.624Z,83.87
2022-12-02T11:29:07.706Z,83.79
2022-12-02T11:31:35.791Z,83.93
2022-12-02T11:34:18.490Z,83.78
2022-12-02T11:36:45.025Z,83.44
2022-12-02T11:39:12.972Z,84.15
2022-12-02T11:42:16.866Z,79.67
2022-12-02T11:44:43.425Z,83.43
2022-12-02T11:47:23.784Z,83.92
2022-12-02T11:49:50.395Z,84.47
2022-12-02T11:52:20.462Z,84.29
2022-12-02T11:54:52.355Z,84.36
2022-12-02T11:57:22.484Z,84.38
2022-12-02T11:59:49.508Z,84.44
2022-12-02T12:02:19.780Z,84.62
2022-12-02T12:04:58.105Z,85.02
2022-12-02T12:07:24.713Z,85.46
2022-12-02T12:09:57.213Z,85.03
2022-12-02T12:12:23.766Z,85.46
2022-12-02T12:14:59.018Z,85.43
2022-12-02T12:17:43.259Z,85.92
2022-12-02T12:20:43.816Z,85.35
2022-12-02T12:23:29.659Z,86.03
2022-12-02T12:25:56.212Z,85.59
2022-12-02T12:28:23.824Z,85.94
2022-12-02T12:30:50.433Z,85.99
2022-12-02T12:33:18.320Z,85.70
2022-12-02T12:35:44.902Z,85.76
2022-12-02T12:38:11.447Z,85.78
2022-12-02T12:40:39.041Z,85.48
2022-12-02T12:43:05.562Z,86.52
2022-12-02T12:45:32.108Z,86.23
2022-12-02T12:47:58.734Z,85.79
2022-12-02T12:50:30.000Z,86.27
2022-12-02T12:52:56.908Z,86.48
2022-12-02T12:55:23.734Z,86.29
2022-12-02T12:57:50.279Z,85.83
2022-12-02T13:00:17.703Z,86.20
2022-12-02T13:02:44.345Z,86.30
2022-12-02T13:05:11.607Z,86.55
2022-12-02T13:07:39.614Z,86.36
2022-12-02T13:10:07.506Z,82.76
2022-12-02T13:12:34.047Z,86.21
2022-12-02T13:15:00.574Z,85.82
2022-12-02T13:17:27.124Z,86.36
2022-12-02T13:19:53.677Z,86.61
2022-12-02T13:22:20.220Z,84.72
2022-12-02T13:24:48.133Z,83.27
2022-12-02T13:27:14.712Z,84.44
2022-12-02T13:29:41.741Z,80.67
2022-12-02T13:32:08.291Z,86.08
2022-12-02T13:34:34.818Z,86.90
2022-12-02T13:37:01.412Z,87.07
2022-12-02T13:39:27.958Z,86.54
2022-12-02T13:41:55.853Z,86.28
2022-12-02T13:44:22.401Z,87.06
2022-12-02T13:46:49.029Z,87.13
2022-12-02T13:49:15.663Z,86.49
2022-12-02T13:51:42.333Z,86.87
2022-12-02T13:54:08.908Z,86.91
2022-12-02T13:56:35.473Z,87.40
2022-12-02T13:59:03.354Z,86.33
2022-12-02T14:01:29.949Z,87.44
2022-12-02T14:03:56.669Z,86.55
2022-12-02T14:06:23.303Z,86.99
2022-12-02T14:08:49.863Z,86.64
2022-12-02T14:11:19.088Z,86.67
2022-12-02T14:13:47.830Z,87.39
2022-12-02T14:16:15.863Z,87.27
2022-12-02T14:18:42.440Z,87.53
2022-12-02T14:21:08.987Z,86.94
2022-12-02T14:23:35.500Z,87.45
2022-12-02T14:26:02.087Z,87.75
2022-12-02T14:28:28.873Z,81.94
2022-12-02T14:30:55.792Z,84.72
2022-12-02T14:33:25.417Z,80.08
2022-12-02T14:35:58.568Z,87.23
2022-12-02T14:38:25.755Z,85.28
2022-12-02T14:40:52.441Z,88.16
2022-12-02T14:43:18.979Z,88.03
2022-12-02T14:45:45.682Z,87.52
2022-12-02T14:48:12.287Z,87.62
2022-12-02T14:50:40.200Z,87.30
2022-12-02T14:53:06.908Z,87.06
2022-12-02T14:55:33.447Z,87.27
2022-12-02T14:58:00.002Z,87.57
2022-12-02T15:00:26.544Z,87.63
2022-12-02T15:02:53.124Z,87.97
2022-12-02T15:05:22.443Z,87.46
2022-12-02T15:07:50.445Z,87.69
2022-12-02T15:10:17.154Z,87.27
2022-12-02T15:12:44.060Z,87.87
2022-12-02T15:15:36.629Z,87.08
2022-12-02T15:17:57.722Z,87.46
2022-12-02T15:20:26.431Z,88.06
2022-12-02T15:22:54.454Z,87.68
2022-12-02T15:25:21.116Z,88.08
2022-12-02T15:27:47.658Z,88.12
2022-12-02T15:30:14.971Z,87.25
2022-12-02T15:32:41.635Z,87.30
2022-12-02T15:35:09.427Z,87.53
2022-12-02T15:37:36.029Z,88.05
2022-12-02T15:40:05.113Z,87.42
2022-12-02T15:42:31.685Z,87.60
2022-12-02T15:44:58.322Z,87.95
2022-12-02T15:47:24.877Z,87.21
2022-12-02T15:49:51.392Z,87.29
2022-12-02T15:52:17.925Z,87.31
2022-12-02T15:54:44.520Z,86.88
2022-12-02T15:57:12.468Z,87.42
2022-12-02T15:59:39.002Z,87.84
2022-12-02T16:02:05.633Z,87.27
2022-12-02T16:04:32.875Z,87.66
2022-12-02T16:06:59.431Z,87.67
2022-12-02T16:09:26.096Z,87.21
2022-12-02T16:11:52.715Z,86.86
2022-12-02T16:14:20.610Z,86.84
2022-12-02T16:16:47.191Z,87.57
2022-12-02T16:19:13.773Z,86.48
2022-12-02T16:21:40.286Z,86.62
2022-12-02T16:24:07.116Z,86.96
2022-12-02T16:26:33.674Z,87.07
2022-12-02T16:29:00.255Z,87.09
2022-12-02T16:31:28.179Z,86.88
2022-12-02T16:33:55.245Z,86.55
2022-12-02T16:36:21.791Z,86.28
2022-12-02T16:38:48.489Z,86.32
2022-12-02T16:41:15.011Z,86.63
2022-12-02T16:43:41.565Z,86.75
2022-12-02T16:46:08.318Z,86.45
2022-12-02T16:48:36.326Z,86.54
2022-12-02T16:51:03.459Z,86.14
2022-12-02T16:53:30.061Z,86.85
2022-12-02T16:55:56.664Z,86.46
2022-12-02T16:58:23.228Z,86.77
2022-12-02T17:00:49.877Z,86.93
2022-12-02T17:03:16.541Z,85.98
2022-12-02T17:05:44.447Z,86.97
2022-12-02T17:08:11.465Z,86.89
2022-12-02T17:10:38.160Z,86.58
2022-12-02T17:13:04.693Z,86.54
2022-12-02T17:15:31.273Z,86.14
2022-12-02T17:17:57.868Z,85.66
2022-12-02T17:20:24.485Z,86.81
2022-12-02T17:22:52.400Z,86.77
2022-12-02T17:25:18.948Z,86.31
2022-12-02T17:27:45.538Z,86.46
2022-12-02T17:30:13.198Z,85.90
2022-12-02T17:32:39.892Z,86.55
2022-12-02T17:35:06.987Z,86.04
2022-12-02T17:37:33.592Z,86.47
2022-12-02T17:40:01.732Z,86.03
2022-12-02T17:42:28.277Z,85.71
2022-12-02T17:44:55.184Z,85.53
2022-12-02T17:47:21.899Z,86.22
2022-12-02T17:49:48.459Z,85.58
2022-12-02T17:52:22.093Z,85.71
2022-12-02T17:54:48.964Z,85.86
2022-12-02T17:57:16.884Z,86.49
2022-12-02T17:59:43.538Z,86.33
2022-12-02T18:02:10.382Z,86.29
2022-12-02T18:04:37.428Z,86.46
2022-12-02T18:07:09.668Z,86.41
2022-12-02T18:09:36.819Z,85.95
2022-12-02T18:12:03.477Z,85.90
2022-12-02T18:14:31.447Z,85.75
2022-12-02T18:16:58.071Z,86.74
2022-12-02T18:19:24.691Z,86.75
2022-12-02T18:21:51.344Z,86.56
2022-12-02T18:24:17.864Z,85.75
2022-12-02T18:26:44.475Z,85.89
2022-12-02T18:29:10.978Z,86.05
2022-12-02T18:31:38.843Z,86.03
2022-12-02T18:34:05.412Z,86.29
2022-12-02T18:36:31.986Z,85.21
2022-12-02T18:38:58.521Z,85.06
2022-12-02T18:41:25.078Z,85.41
2022-12-02T18:43:51.605Z,85.45
2022-12-02T18:46:18.225Z,85.48
2022-12-02T18:48:46.171Z,84.79
2022-12-02T18:51:12.731Z,85.27
2022-12-02T18:53:39.284Z,84.85
2022-12-02T18:56:06.285Z,85.60
2022-12-02T18:58:32.864Z,85.57
2022-12-02T19:00:59.433Z,84.90
2022-12-02T19:03:26.152Z,85.06
2022-12-02T19:05:54.057Z,85.77
2022-12-02T19:08:20.567Z,85.41
2022-12-02T19:10:47.128Z,85.47
2022-12-02T19:13:15.686Z,85.10
2022-12-02T19:15:42.305Z,81.72
2022-12-02T19:18:08.932Z,84.87
2022-12-02T19:20:35.595Z,85.55
2022-12-02T19:23:03.514Z,85.71
2022-12-02T19:25:30.771Z,84.45
2022-12-02T19:27:58.887Z,85.07
2022-12-02T19:30:26.394Z,84.49
2022-12-02T19:32:53.401Z,84.71
2022-12-02T19:35:19.998Z,84.39
2022-12-02T19:37:46.543Z,84.30
2022-12-02T19:40:14.858Z,84.48
2022-12-02T19:42:41.883Z,85.04
2022-12-02T19:45:11.462Z,85.36
2022-12-02T19:47:38.019Z,85.48
2022-12-02T19:50:05.415Z,84.25
2022-12-02T19:52:32.797Z,84.57
2022-12-02T19:54:59.479Z,84.67
2022-12-02T19:57:27.428Z,84.73
2022-12-02T19:59:53.980Z,84.37
2022-12-02T20:02:20.600Z,84.52
2022-12-02T20:04:47.373Z,84.42
2022-12-02T20:07:13.922Z,85.22
2022-12-02T20:09:40.435Z,84.23
2022-12-02T20:12:07.086Z,85.39
2022-12-02T20:14:34.948Z,84.77
2022-12-02T20:17:01.617Z,85.12
2022-12-02T20:19:28.158Z,84.70
2022-12-02T20:21:54.696Z,84.55
2022-12-02T20:24:21.221Z,84.47
2022-12-02T20:26:47.721Z,85.01
2022-12-02T20:29:14.317Z,84.60
2022-12-02T20:31:42.324Z,84.99
2022-12-02T20:34:08.918Z,84.63
2022-12-02T20:36:35.485Z,84.79
2022-12-02T20:39:02.195Z,84.59
2022-12-02T20:41:28.819Z,84.24
2022-12-02T20:43:55.370Z,84.97
2022-12-02T20:46:23.537Z,83.95
2022-12-02T20:48:51.582Z,84.35
2022-12-02T20:51:18.141Z,84.16
2022-12-02T20:53:44.694Z,84.25
2022-12-02T20:56:11.249Z,84.98
2022-12-02T20:58:37.812Z,84.89
2022-12-02T21:01:09.256Z,84.60
2022-12-02T21:03:38.976Z,83.94
2022-12-02T21:06:07.744Z,82.68
2022-12-02T21:08:34.420Z,84.49
2022-12-02T21:11:01.079Z,84.50
2022-12-02T21:13:27.639Z,83.98
2022-12-02T21:15:54.324Z,80.95
2022-12-02T21:18:21.207Z,85.05
2022-12-02T21:20:48.027Z,84.99
2022-12-02T21:23:15.924Z,84.47
2022-12-02T21:25:42.500Z,84.18
2022-12-02T21:28:09.027Z,81.04
2022-12-02T21:30:37.645Z,82.33
2022-12-02T21:33:04.706Z,86.71
2022-12-02T21:35:31.300Z,88.66
2022-12-02T21:37:58.741Z,84.22
2022-12-02T21:40:26.727Z,84.61
2022-12-02T21:42:53.288Z,85.21
2022-12-02T21:45:19.858Z,86.97
2022-12-02T21:47:46.453Z,88.54
2022-12-02T21:50:13.048Z,89.42
2022-12-02T21:52:39.590Z,83.26
2022-12-02T21:55:06.780Z,86.69
2022-12-02T21:57:34.679Z,86.88
2022-12-02T22:00:01.229Z,85.45
2022-12-02T22:02:28.033Z,80.27
2022-12-02T22:04:54.842Z,83.13
2022-12-02T22:07:40.213Z,85.58
2022-12-02T22:10:09.303Z,89.47
2022-12-02T22:12:37.351Z,88.37
2022-12-02T22:15:04.564Z,86.38
2022-12-02T22:17:31.137Z,85.53
2022-12-02T22:19:57.921Z,85.94
2022-12-02T22:22:24.456Z,82.24
2022-12-02T22:24:51.208Z,86.86
2022-12-02T22:27:18.000Z,84.62
2022-12-02T22:29:45.951Z,82.69
2022-12-02T22:32:12.561Z,84.66
2022-12-02T22:34:39.147Z,85.60
2022-12-02T22:37:05.702Z,86.85
2022-12-02T22:39:32.241Z,90.44
2022-12-02T22:41:58.855Z,88.65
2022-12-02T22:44:25.533Z,87.44
2022-12-02T22:46:53.560Z,80.96
2022-12-02T22:49:20.140Z,85.02
2022-12-02T22:51:46.920Z,87.59
2022-12-02T22:54:13.722Z,90.22
2022-12-02T22:56:40.333Z,88.72
2022-12-02T22:59:06.943Z,82.61
2022-12-02T23:01:34.599Z,82.65
2022-12-02T23:04:02.587Z,83.38
2022-12-02T23:06:29.207Z,87.83
2022-12-02T23:08:55.816Z,84.98
2022-12-02T23:11:22.354Z,88.92
2022-12-02T23:13:49.014Z,87.05
2022-12-02T23:16:15.616Z,87.01
2022-12-02T23:18:42.228Z,86.36
2022-12-02T23:21:10.094Z,86.89
2022-12-02T23:23:36.684Z,86.23
2022-12-02T23:26:03.287Z,86.38
2022-12-02T23:28:29.882Z,85.64
2022-12-02T23:30:56.536Z,85.63
2022-12-02T23:33:23.647Z,85.94
2022-12-02T23:35:50.359Z,86.44
2022-12-02T23:38:18.292Z,85.91
2022-12-02T23:40:44.946Z,86.13
2022-12-02T23:43:11.467Z,85.82
2022-12-02T23:45:38.082Z,86.32
2022-12-02T23:48:04.864Z,85.42
2022-12-02T23:50:31.412Z,85.99
2022-12-02T23:52:57.950Z,86.06
2022-12-02T23:55:25.832Z,85.87
2022-12-02T23:57:52.547Z,86.44
